Saturday, November 18, 2017, 1:16 AM EST
Back to Local

KUNV, State College, University Park Airport

Location: State College, PA, United States Lat: 40.85
Local Time: 1:16 AM EST ( 6:16 GMT) Lon: -77.85
Time Zone: US/Eastern Elev: 1240 ft

Show me the last for .
Show Decoded

2017-11-18 00:55 METAR KUNV 180555Z AUTO 00000KT 10SM CLR 00/M04 A2996 RMK AO2 T10011040 10020
                 21015 =
2017-11-18 00:35 METAR KUNV 180535Z AUTO 00000KT 10SM CLR M01/M04 A2997 RMK AO2 T10151041 =
2017-11-18 00:15 METAR KUNV 180515Z AUTO 00000KT 10SM CLR 00/M04 A2999 RMK AO2 T10051040 =
2017-11-17 23:55 METAR KUNV 180455Z AUTO 00000KT 10SM CLR M01/M04 A3000 RMK AO2 T10091037 =
2017-11-17 23:35 METAR KUNV 180435Z AUTO 26006KT 10SM CLR 00/M03 A3000 RMK AO2 T10011035 =
2017-11-17 23:15 METAR KUNV 180415Z AUTO 25003KT 10SM CLR 00/M03 A3001 RMK AO2 T10011035 =
2017-11-17 22:55 METAR KUNV 180355Z AUTO 27003KT 10SM CLR 00/M03 A3002 RMK AO2 T10011033
                 400651013 =
2017-11-17 22:35 METAR KUNV 180335Z AUTO 26004KT 10SM CLR 00/M03 A3003 RMK AO2 T10011032 =
2017-11-17 22:15 METAR KUNV 180315Z AUTO 23003KT 10SM CLR M01/M04 A3004 RMK AO2 T10081036 =
2017-11-17 21:53 METAR KUNV 180253Z 00000KT 10SM SKC M01/M04 A3005 =
2017-11-17 20:53 METAR KUNV 180153Z 00000KT 10SM SKC 00/M04 A3006 =
2017-11-17 19:53 METAR KUNV 180053Z 00000KT 10SM SKC 00/M04 A3007 =
2017-11-17 18:53 METAR KUNV 172353Z 00000KT 10SM SKC 02/M04 A3010 =
2017-11-17 17:53 METAR KUNV 172253Z 00000KT 10SM SKC 03/M04 A3010 =
2017-11-17 16:53 METAR KUNV 172153Z 00000KT 10SM SKC 04/M04 A3012 =
2017-11-17 15:53 METAR KUNV 172053Z 27006KT 10SM SKC 05/M04 A3013 =
2017-11-17 14:53 METAR KUNV 171953Z 30005KT 10SM SKC 06/M05 A3014 =
2017-11-17 13:53 METAR KUNV 171853Z 35008KT 10SM SKC 06/M05 A3015 =
2017-11-17 12:53 METAR KUNV 171753Z 27012KT 10SM SKC 05/M04 A3017 =
2017-11-17 11:53 METAR KUNV 171653Z 30011KT 10SM SKC 05/M04 A3020 =
2017-11-17 10:53 METAR KUNV 171553Z 28009KT 10SM SCT030 04/M04 A3021 =
2017-11-17 09:53 METAR KUNV 171453Z 24009KT 10SM SCT028 03/M04 A3021 =
2017-11-17 08:53 METAR KUNV 171353Z 27010KT 10SM BKN028 02/M04 A3020 =
2017-11-17 07:53 METAR KUNV 171253Z 27010KT 10SM BKN025 01/M04 A3019 =
2017-11-17 06:53 METAR KUNV 171153Z 27008KT 10SM BKN028 01/M04 A3016 =
2017-11-17 05:53 METAR KUNV 171053Z 28011KT 10SM OVC028 01/M04 A3015 =
2017-11-17 05:35 METAR KUNV 171035Z AUTO 29009G15KT 10SM OVC026 02/M03 A3015 RMK AO2 T00151035 =
2017-11-17 05:15 METAR KUNV 171015Z AUTO 31008G17KT 10SM OVC024 02/M03 A3014 RMK AO2 T00151030 =
2017-11-17 04:55 METAR KUNV 170955Z AUTO 35010KT 10SM BKN024 OVC029 02/M03 A3013 RMK AO2
                 T00161030 =
2017-11-17 04:35 METAR KUNV 170935Z AUTO 34008KT 280V360 10SM OVC024 02/M03 A3013 RMK AO2
                 T00171028 =
2017-11-17 04:15 METAR KUNV 170915Z AUTO 30011G22KT 270V330 10SM OVC026 02/M03 A3013 RMK AO2
                 T00181030 =
2017-11-17 03:55 METAR KUNV 170855Z AUTO 30010G17KT 10SM OVC026 02/M03 A3012 RMK AO2 T00181029 =
2017-11-17 03:35 METAR KUNV 170835Z AUTO 30008KT 10SM OVC024 02/M02 A3012 RMK AO2 T00181023 =
2017-11-17 03:15 METAR KUNV 170815Z AUTO 32010G15KT 10SM OVC024 02/M02 A3012 RMK AO2 T00201025 =
2017-11-17 02:55 METAR KUNV 170755Z AUTO 32009G16KT 10SM OVC024 02/M02 A3012 RMK AO2 T00201019 =
2017-11-17 02:35 METAR KUNV 170735Z AUTO 30009KT 10SM OVC026 02/M01 A3012 RMK AO2 T00201015 =
2017-11-17 02:15 METAR KUNV 170715Z AUTO 31008G18KT 10SM BKN026 BKN031 BKN070 02/M02 A3011 RMK
                 AO2 T00221020 =
2017-11-17 01:55 METAR KUNV 170655Z AUTO 32009KT 10SM SCT028 SCT035 SCT070 02/M02 A3010 RMK AO2
                 T00211021 =
2017-11-17 01:35 METAR KUNV 170635Z AUTO 30010G15KT 10SM SCT026 BKN033 02/M02 A3009 RMK AO2
                 T00231021 =

Support USWX by starting your Amazon purchase here.